Darstellungsparameter: Aktuell verwendete Einstellungen:
Skalierung der Graphiken ... ?
xyx+y,   Skalierungsfaktor:      Skalierung: Modus: x, Faktor: 1
Darstellungszeitraum ... ?
Vom - - bis: - -   Zeitraum: 24.04.2020 - 24.04.2020
Min/Max/Avg-Anzeige ... ?
Zeige MMA aktuell
Zeige MMA Monat
Zeige MMA alles
Zeige --A aktuell
Zeige --A Monat
Zeige --A alles
Keine MMA-Anzeige
MMA:
Keine MMA-Graphiken
MMA-Basis: 24.04.2020 - 24.04.2020
Quicknavigation für Darstellung... ?
Tage:      1T, 2T, 3T, 5T -1T -2T -3T -5T +1T +2T +3T +5T
Wochen: 1W, 2W, 3W -1W -2W -3W +1W +2W +3W
Monate: 1M, 3M, 6M -1M -3M -6M +1M +3M +6M
Jahre:    1J, 3J, 5J, 10J -1J -3J -5J -10J +1J +3J +5J +10J
Nutze für die Darstellung ... ?
Originaldaten oder Mittelwerte auf ...
Stundenbasis Tagesbasis Wochenbasis
Monatsbasis Jahresbasis      Datenbasis: Original-Daten
Darstellen als:
Statistik (Auto) Statistik J:M      Darstellung:
Zur Graphik,    zurück zur Übersicht aller Sensoren.
 
Tabellarische Datenbersicht: ?
 
Sensor: Nr:Datum:Temp:Feuchte:Taupunkt:
Aussen-T/F 1 24-04-2020 00:00:00 9.6 C 72 % 4.81 C
2 24-04-2020 00:05:00 9.6 C 72 % 4.81 C
3 24-04-2020 00:10:00 9.6 C 73 % 5.01 C
4 24-04-2020 00:15:00 9.6 C 74 % 5.2 C
5 24-04-2020 00:20:00 9.6 C 73 % 5.01 C
6 24-04-2020 00:25:00 9.5 C 73 % 4.91 C
7 24-04-2020 00:30:00 9.4 C 74 % 5.01 C
8 24-04-2020 00:35:00 9.3 C 74 % 4.91 C
9 24-04-2020 00:40:00 9.1 C 74 % 4.72 C
10 24-04-2020 00:45:00 9 C 74 % 4.62 C
11 24-04-2020 00:50:00 8.9 C 75 % 4.72 C
12 24-04-2020 00:55:00 8.8 C 75 % 4.62 C
13 24-04-2020 01:00:00 8.8 C 76 % 4.81 C
14 24-04-2020 01:05:00 8.7 C 76 % 4.71 C
15 24-04-2020 01:10:00 8.7 C 77 % 4.9 C
16 24-04-2020 01:15:00 8.6 C 77 % 4.8 C
17 24-04-2020 01:20:00 8.6 C 77 % 4.8 C
18 24-04-2020 01:25:00 8.5 C 76 % 4.52 C
19 24-04-2020 01:30:00 8.4 C 76 % 4.42 C
20 24-04-2020 01:35:00 8.4 C 77 % 4.61 C
21 24-04-2020 01:40:00 8.4 C 78 % 4.79 C
22 24-04-2020 01:45:00 8.4 C 78 % 4.79 C
23 24-04-2020 01:50:00 8.3 C 78 % 4.7 C
24 24-04-2020 01:55:00 8.2 C 78 % 4.6 C
25 24-04-2020 02:00:00 8.2 C 78 % 4.6 C
Sensor: Nr:Datum:Temp:Feuchte:Taupunkt:
Aussen-T/F 26 24-04-2020 02:05:00 8.1 C 79 % 4.68 C
27 24-04-2020 02:10:00 7.9 C 78 % 4.31 C
28 24-04-2020 02:15:00 7.8 C 78 % 4.21 C
29 24-04-2020 02:20:00 7.7 C 79 % 4.3 C
30 24-04-2020 02:25:00 7.7 C 80 % 4.47 C
31 24-04-2020 02:30:00 7.7 C 80 % 4.47 C
32 24-04-2020 02:35:00 7.7 C 81 % 4.65 C
33 24-04-2020 02:40:00 7.6 C 80 % 4.38 C
34 24-04-2020 02:45:00 7.4 C 80 % 4.18 C
35 24-04-2020 02:50:00 7.4 C 81 % 4.36 C
36 24-04-2020 02:55:00 7.3 C 82 % 4.44 C
37 24-04-2020 03:00:00 7.3 C 82 % 4.44 C
38 24-04-2020 03:05:00 7.3 C 82 % 4.44 C
39 24-04-2020 03:10:00 7.3 C 82 % 4.44 C
40 24-04-2020 03:15:00 7.2 C 82 % 4.34 C
41 24-04-2020 03:20:00 7.1 C 82 % 4.24 C
42 24-04-2020 03:25:00 6.9 C 83 % 4.22 C
43 24-04-2020 03:30:00 6.9 C 83 % 4.22 C
44 24-04-2020 03:35:00 6.8 C 83 % 4.12 C
45 24-04-2020 03:40:00 6.8 C 84 % 4.29 C
46 24-04-2020 03:45:00 6.7 C 84 % 4.19 C
47 24-04-2020 03:50:00 6.7 C 84 % 4.19 C
48 24-04-2020 03:55:00 6.7 C 84 % 4.19 C
49 24-04-2020 04:00:00 6.7 C 84 % 4.19 C
50 24-04-2020 04:05:00 6.6 C 84 % 4.1 C
Sensor: Nr:Datum:Temp:Feuchte:Taupunkt:
Aussen-T/F 51 24-04-2020 04:10:00 6.5 C 85 % 4.17 C
52 24-04-2020 04:15:00 6.5 C 85 % 4.17 C
53 24-04-2020 04:20:00 6.4 C 85 % 4.07 C
54 24-04-2020 04:25:00 6.3 C 85 % 3.97 C
55 24-04-2020 04:30:00 6.3 C 85 % 3.97 C
56 24-04-2020 04:35:00 6.3 C 86 % 4.14 C
57 24-04-2020 04:40:00 6.5 C 86 % 4.33 C
58 24-04-2020 04:45:00 6.6 C 86 % 4.43 C
59 24-04-2020 04:50:00 6.7 C 86 % 4.53 C
60 24-04-2020 04:55:00 6.7 C 85 % 4.36 C
61 24-04-2020 05:00:00 6.7 C 85 % 4.36 C
62 24-04-2020 05:05:00 6.6 C 85 % 4.26 C
63 24-04-2020 05:10:00 6.5 C 85 % 4.17 C
64 24-04-2020 05:15:00 6.4 C 85 % 4.07 C
65 24-04-2020 05:20:00 6.3 C 86 % 4.14 C
66 24-04-2020 05:25:00 6.3 C 86 % 4.14 C
67 24-04-2020 05:30:00 6.3 C 87 % 4.3 C
68 24-04-2020 05:35:00 6.3 C 87 % 4.3 C
69 24-04-2020 05:40:00 6.4 C 87 % 4.4 C
70 24-04-2020 05:45:00 6.4 C 87 % 4.4 C
71 24-04-2020 05:50:00 6.4 C 87 % 4.4 C
72 24-04-2020 05:55:00 6.4 C 87 % 4.4 C
73 24-04-2020 06:00:00 6.4 C 87 % 4.4 C
74 24-04-2020 06:05:00 6.4 C 87 % 4.4 C
75 24-04-2020 06:10:00 6.3 C 87 % 4.3 C
Sensor: Nr:Datum:Temp:Feuchte:Taupunkt:
Aussen-T/F 76 24-04-2020 06:15:00 6.3 C 87 % 4.3 C
77 24-04-2020 06:20:00 6.3 C 87 % 4.3 C
78 24-04-2020 06:25:00 6.4 C 87 % 4.4 C
79 24-04-2020 06:30:00 6.4 C 87 % 4.4 C
80 24-04-2020 06:35:00 6.4 C 87 % 4.4 C
81 24-04-2020 06:40:00 6.3 C 87 % 4.3 C
82 24-04-2020 06:45:00 6.4 C 87 % 4.4 C
83 24-04-2020 06:50:00 6.4 C 87 % 4.4 C
84 24-04-2020 06:55:00 6.4 C 87 % 4.4 C
85 24-04-2020 07:00:00 6.4 C 87 % 4.4 C
86 24-04-2020 07:05:00 6.4 C 87 % 4.4 C
87 24-04-2020 07:10:00 6.5 C 88 % 4.66 C
88 24-04-2020 07:15:00 6.5 C 88 % 4.66 C
89 24-04-2020 07:20:00 6.6 C 88 % 4.76 C
90 24-04-2020 07:25:00 6.6 C 88 % 4.76 C
91 24-04-2020 07:30:00 6.6 C 88 % 4.76 C
92 24-04-2020 07:35:00 6.6 C 88 % 4.76 C
93 24-04-2020 07:40:00 6.6 C 88 % 4.76 C
94 24-04-2020 07:45:00 6.7 C 88 % 4.86 C
95 24-04-2020 07:50:00 6.8 C 88 % 4.96 C
96 24-04-2020 07:55:00 6.8 C 88 % 4.96 C
97 24-04-2020 08:00:00 6.9 C 88 % 5.05 C
98 24-04-2020 08:05:00 6.9 C 88 % 5.05 C
99 24-04-2020 08:10:00 7.1 C 88 % 5.25 C
100 24-04-2020 08:15:00 7.2 C 88 % 5.35 C
Sensor: Nr:Datum:Temp:Feuchte:Taupunkt:
Aussen-T/F 101 24-04-2020 08:20:00 7.3 C 87 % 5.28 C
102 24-04-2020 08:25:00 7.6 C 87 % 5.58 C
103 24-04-2020 08:30:00 7.8 C 86 % 5.61 C
104 24-04-2020 08:35:00 8.1 C 85 % 5.73 C
105 24-04-2020 08:40:00 8.3 C 85 % 5.93 C
106 24-04-2020 08:45:00 8.7 C 85 % 6.32 C
107 24-04-2020 08:50:00 8.9 C 83 % 6.17 C
108 24-04-2020 08:55:00 9.2 C 83 % 6.47 C
109 24-04-2020 09:00:00 9.4 C 82 % 6.49 C
110 24-04-2020 09:05:00 9.6 C 80 % 6.32 C
111 24-04-2020 09:10:00 9.9 C 79 % 6.43 C
112 24-04-2020 09:15:00 10.1 C 78 % 6.44 C
113 24-04-2020 09:20:00 10.3 C 79 % 6.82 C
114 24-04-2020 09:25:00 10.6 C 78 % 6.93 C
115 24-04-2020 09:30:00 10.8 C 77 % 6.94 C
116 24-04-2020 09:35:00 11.1 C 77 % 7.23 C
117 24-04-2020 09:40:00 11.3 C 76 % 7.23 C
118 24-04-2020 09:45:00 11.4 C 75 % 7.13 C
119 24-04-2020 09:50:00 11.7 C 75 % 7.42 C
120 24-04-2020 09:55:00 11.8 C 75 % 7.52 C
121 24-04-2020 10:00:00 12.1 C 74 % 7.61 C
122 24-04-2020 10:05:00 12.2 C 73 % 7.51 C
123 24-04-2020 10:10:00 12.3 C 73 % 7.61 C
124 24-04-2020 10:15:00 12.3 C 72 % 7.4 C
125 24-04-2020 10:20:00 12.5 C 72 % 7.6 C
Sensor: Nr:Datum:Temp:Feuchte:Taupunkt:
Aussen-T/F 126 24-04-2020 10:25:00 12.7 C 72 % 7.79 C
127 24-04-2020 10:30:00 12.9 C 72 % 7.98 C
128 24-04-2020 10:35:00 13.2 C 71 % 8.06 C
129 24-04-2020 10:40:00 13.6 C 71 % 8.45 C
130 24-04-2020 10:45:00 13.8 C 69 % 8.22 C
131 24-04-2020 10:50:00 13.9 C 70 % 8.53 C
132 24-04-2020 10:55:00 14.2 C 68 % 8.39 C
133 24-04-2020 11:00:00 14.3 C 67 % 8.26 C
134 24-04-2020 11:05:00 14.6 C 67 % 8.55 C
135 24-04-2020 11:10:00 14.7 C 66 % 8.42 C
136 24-04-2020 11:15:00 14.8 C 67 % 8.74 C
137 24-04-2020 11:20:00 15 C 65 % 8.48 C
138 24-04-2020 11:25:00 15.2 C 65 % 8.67 C
139 24-04-2020 11:30:00 15.3 C 64 % 8.54 C
140 24-04-2020 11:35:00 15.4 C 63 % 8.4 C
141 24-04-2020 11:40:00 15.6 C 64 % 8.82 C
142 24-04-2020 11:45:00 15.7 C 63 % 8.68 C
143 24-04-2020 11:50:00 15.9 C 62 % 8.64 C
144 24-04-2020 11:55:00 16.1 C 62 % 8.82 C
145 24-04-2020 12:00:00 16.2 C 62 % 8.92 C
146 24-04-2020 12:05:00 16.4 C 63 % 9.35 C
147 24-04-2020 12:10:00 16.6 C 62 % 9.3 C
148 24-04-2020 12:15:00 16.9 C 60 % 9.09 C
149 24-04-2020 12:20:00 17.3 C 63 % 10.2 C
150 24-04-2020 12:25:00 17.7 C 58 % 9.34 C
Sensor: Nr:Datum:Temp:Feuchte:Taupunkt:
Aussen-T/F 151 24-04-2020 12:30:00 17.9 C 55 % 8.74 C
152 24-04-2020 12:35:00 18.1 C 56 % 9.19 C
153 24-04-2020 12:40:00 18.2 C 55 % 9.02 C
154 24-04-2020 12:45:00 18.3 C 51 % 8 C
155 24-04-2020 12:50:00 18.6 C 52 % 8.56 C
156 24-04-2020 12:55:00 18.8 C 49 % 7.87 C
157 24-04-2020 13:00:00 19.2 C 47 % 7.63 C
158 24-04-2020 13:05:00 19.3 C 48 % 8.03 C
159 24-04-2020 13:10:00 19.4 C 46 % 7.49 C
160 24-04-2020 13:15:00 19.7 C 44 % 7.12 C
161 24-04-2020 13:20:00 20 C 42 % 6.71 C
162 24-04-2020 13:25:00 20.1 C 39 % 5.73 C
163 24-04-2020 13:30:00 20.2 C 38 % 5.44 C
164 24-04-2020 13:35:00 20.2 C 40 % 6.18 C
165 24-04-2020 13:40:00 20.3 C 39 % 5.9 C
166 24-04-2020 13:45:00 20.5 C 38 % 5.71 C
167 24-04-2020 13:50:00 20.7 C 38 % 5.89 C
168 24-04-2020 13:55:00 20.7 C 39 % 6.26 C
169 24-04-2020 14:00:00 20.8 C 40 % 6.72 C
170 24-04-2020 14:05:00 21.1 C 41 % 7.35 C
171 24-04-2020 14:10:00 21.1 C 40 % 6.99 C
172 24-04-2020 14:15:00 21.1 C 40 % 6.99 C
173 24-04-2020 14:20:00 21.2 C 41 % 7.44 C
174 24-04-2020 14:25:00 21.4 C 41 % 7.62 C
175 24-04-2020 14:30:00 21.4 C 41 % 7.62 C
Sensor: Nr:Datum:Temp:Feuchte:Taupunkt:
Aussen-T/F 176 24-04-2020 14:35:00 21.4 C 42 % 7.97 C
177 24-04-2020 14:40:00 21.5 C 42 % 8.06 C
178 24-04-2020 14:45:00 21.6 C 42 % 8.15 C
179 24-04-2020 14:50:00 21.6 C 42 % 8.15 C
180 24-04-2020 14:55:00 21.7 C 41 % 7.88 C
181 24-04-2020 15:00:00 21.7 C 42 % 8.24 C
182 24-04-2020 15:05:00 21.8 C 40 % 7.61 C
183 24-04-2020 15:10:00 21.9 C 41 % 8.06 C
184 24-04-2020 15:15:00 21.9 C 39 % 7.33 C
185 24-04-2020 15:20:00 22 C 39 % 7.42 C
186 24-04-2020 15:25:00 21.9 C 38 % 6.95 C
187 24-04-2020 15:30:00 22 C 37 % 6.65 C
188 24-04-2020 15:35:00 22.1 C 36 % 6.34 C
189 24-04-2020 15:40:00 22.2 C 36 % 6.43 C
190 24-04-2020 15:45:00 22.3 C 36 % 6.52 C
191 24-04-2020 15:50:00 22.4 C 35 % 6.2 C
192 24-04-2020 15:55:00 22.6 C 34 % 5.96 C
193 24-04-2020 16:00:00 22.6 C 34 % 5.96 C
194 24-04-2020 16:05:00 22.5 C 35 % 6.29 C
195 24-04-2020 16:10:00 22.6 C 34 % 5.96 C
196 24-04-2020 16:15:00 22.7 C 33 % 5.61 C
197 24-04-2020 16:20:00 22.8 C 33 % 5.7 C
198 24-04-2020 16:25:00 22.8 C 31 % 4.8 C
199 24-04-2020 16:30:00 22.9 C 30 % 4.42 C
200 24-04-2020 16:35:00 23.1 C 32 % 5.52 C
Sensor: Nr:Datum:Temp:Feuchte:Taupunkt:
Aussen-T/F 201 24-04-2020 16:40:00 23.2 C 30 % 4.68 C
202 24-04-2020 16:45:00 23.1 C 29 % 4.11 C
203 24-04-2020 16:50:00 22.9 C 31 % 4.89 C
204 24-04-2020 16:55:00 22.9 C 30 % 4.42 C
205 24-04-2020 17:00:00 22.8 C 31 % 4.8 C
206 24-04-2020 17:05:00 22.6 C 31 % 4.63 C
207 24-04-2020 17:10:00 22.6 C 32 % 5.08 C
208 24-04-2020 17:15:00 22.6 C 30 % 4.16 C
209 24-04-2020 17:20:00 22.6 C 29 % 3.68 C
210 24-04-2020 17:25:00 22.7 C 29 % 3.77 C
211 24-04-2020 17:30:00 22.8 C 29 % 3.85 C
212 24-04-2020 17:35:00 22.7 C 28 % 3.27 C
213 24-04-2020 17:40:00 22.4 C 29 % 3.51 C
214 24-04-2020 17:45:00 22.2 C 30 % 3.82 C
215 24-04-2020 17:50:00 22.2 C 30 % 3.82 C
216 24-04-2020 17:55:00 22.4 C 30 % 3.99 C
217 24-04-2020 18:00:00 22.4 C 31 % 4.46 C
218 24-04-2020 18:05:00 22.1 C 31 % 4.2 C
219 24-04-2020 18:10:00 21.9 C 31 % 4.02 C
220 24-04-2020 18:15:00 21.7 C 33 % 4.74 C
221 24-04-2020 18:20:00 21.4 C 34 % 4.91 C
222 24-04-2020 18:25:00 21.4 C 35 % 5.32 C
223 24-04-2020 18:30:00 21.6 C 37 % 6.3 C
224 24-04-2020 18:35:00 21.6 C 37 % 6.3 C
225 24-04-2020 18:40:00 21.4 C 38 % 6.51 C
Sensor: Nr:Datum:Temp:Feuchte:Taupunkt:
Aussen-T/F 226 24-04-2020 18:45:00 21.3 C 38 % 6.42 C
227 24-04-2020 18:50:00 21.2 C 39 % 6.71 C
228 24-04-2020 18:55:00 21.1 C 39 % 6.62 C
229 24-04-2020 19:00:00 21.1 C 39 % 6.62 C
230 24-04-2020 19:05:00 20.9 C 39 % 6.44 C
231 24-04-2020 19:10:00 20.8 C 39 % 6.35 C
232 24-04-2020 19:15:00 20.7 C 40 % 6.63 C
233 24-04-2020 19:20:00 20.5 C 40 % 6.45 C
234 24-04-2020 19:25:00 20.4 C 41 % 6.72 C
235 24-04-2020 19:30:00 20.3 C 41 % 6.63 C
236 24-04-2020 19:35:00 20.1 C 42 % 6.8 C
237 24-04-2020 19:40:00 19.9 C 43 % 6.96 C
238 24-04-2020 19:45:00 19.8 C 43 % 6.87 C
239 24-04-2020 19:50:00 19.7 C 43 % 6.78 C
240 24-04-2020 19:55:00 19.6 C 44 % 7.03 C
241 24-04-2020 20:00:00 19.4 C 45 % 7.17 C
242 24-04-2020 20:05:00 19.2 C 45 % 6.99 C
243 24-04-2020 20:10:00 19.1 C 44 % 6.57 C
244 24-04-2020 20:15:00 18.9 C 46 % 7.04 C
245 24-04-2020 20:20:00 18.7 C 47 % 7.17 C
246 24-04-2020 20:25:00 18.3 C 47 % 6.8 C
247 24-04-2020 20:30:00 18.2 C 48 % 7.02 C
248 24-04-2020 20:35:00 17.8 C 50 % 7.25 C
249 24-04-2020 20:40:00 17.5 C 50 % 6.97 C
250 24-04-2020 20:45:00 17.2 C 50 % 6.7 C
Sensor: Nr:Datum:Temp:Feuchte:Taupunkt:
Aussen-T/F 251 24-04-2020 20:50:00 16.9 C 51 % 6.71 C
252 24-04-2020 20:55:00 16.7 C 52 % 6.81 C
253 24-04-2020 21:00:00 16.4 C 52 % 6.53 C
254 24-04-2020 21:05:00 16.3 C 53 % 6.71 C
255 24-04-2020 21:10:00 16.2 C 53 % 6.62 C
256 24-04-2020 21:15:00 16 C 52 % 6.16 C
257 24-04-2020 21:20:00 15.8 C 53 % 6.25 C
258 24-04-2020 21:25:00 15.7 C 54 % 6.43 C
259 24-04-2020 21:30:00 15.6 C 53 % 6.06 C
260 24-04-2020 21:35:00 15.6 C 54 % 6.34 C
261 24-04-2020 21:40:00 15.7 C 54 % 6.43 C
262 24-04-2020 21:45:00 15.6 C 53 % 6.06 C
263 24-04-2020 21:50:00 15.5 C 55 % 6.51 C
264 24-04-2020 21:55:00 15.3 C 55 % 6.32 C
265 24-04-2020 22:00:00 15.2 C 55 % 6.23 C
266 24-04-2020 22:05:00 15.1 C 55 % 6.14 C
267 24-04-2020 22:10:00 15 C 56 % 6.3 C
268 24-04-2020 22:15:00 14.8 C 56 % 6.12 C
269 24-04-2020 22:20:00 14.7 C 57 % 6.28 C
270 24-04-2020 22:25:00 14.6 C 54 % 5.41 C
271 24-04-2020 22:30:00 14.6 C 56 % 5.93 C
272 24-04-2020 22:35:00 14.6 C 55 % 5.67 C
273 24-04-2020 22:40:00 14.6 C 56 % 5.93 C
274 24-04-2020 22:45:00 14.4 C 56 % 5.74 C
275 24-04-2020 22:50:00 14.2 C 56 % 5.56 C
Sensor: Nr:Datum:Temp:Feuchte:Taupunkt:
Aussen-T/F 276 24-04-2020 22:55:00 13.9 C 57 % 5.53 C
277 24-04-2020 23:00:00 13.7 C 56 % 5.09 C
278 24-04-2020 23:05:00 13.5 C 57 % 5.16 C
279 24-04-2020 23:10:00 13.3 C 53 % 3.93 C
280 24-04-2020 23:15:00 13.3 C 56 % 4.72 C
281 24-04-2020 23:20:00 13.2 C 52 % 3.57 C
282 24-04-2020 23:25:00 13.1 C 53 % 3.75 C
283 24-04-2020 23:30:00 12.9 C 52 % 3.29 C
284 24-04-2020 23:35:00 12.8 C 50 % 2.65 C
285 24-04-2020 23:40:00 12.9 C 51 % 3.02 C
286 24-04-2020 23:45:00 12.9 C 51 % 3.02 C
287 24-04-2020 23:50:00 12.9 C 53 % 3.56 C
288 24-04-2020 23:55:00 12.8 C 50 % 2.65 C

Legende:
   Min
   Max


Maximal/Minimal-Werte vom 24.04.2020 - 24.04.2020

Sensor Min Max Avg
Temp
(Aussen-T/F)
6.3 °C
24-04-2020  04:25:00
23.2 °C
24-04-2020  16:40:00
13.96 °C
Feuchte
(Aussen-T/F)
28 %
24-04-2020  17:35:00
88 %
24-04-2020  07:10:00
61.85 %
Taupunkt
(Aussen-T/F)
2.65 C
24-04-2020  23:35:00
10.2 C
24-04-2020  12:20:00
5.78 C

Die Daten stammen von einer Davis Vantage Pro 2 Wetter-Station und werden unter Linux mit der Software wview2wettercgi und aufbereitet. Alle Angaben erfolgen ohne Gewähr für ihre Vollständigkeit oder Richtigkeit.
Kontakt: Rainer Krienke krienke@uni-koblenz.de . Meine Webseiten an der Uni Koblenz oder privat.
Version: $Revision: 0.78 $